Krotz Springs, LA

7:51 AM CST on December 07, 2016 (GMT -0600)
MesoWest | | Change Station
Active Advisory: Flood Warning

Elev 48 ft 30.54 °N, 91.74 °W | Updated 51 minutes ago

Overcast
Overcast
51.0 °F
Feels Like 51.0 °F
N
0.0
Wind Variable Wind from North
Gusts 0.0 mph

Today
High -- | Low -- °F
--% Chance of Precip.
Yesterday
High -- | Low -- °F
Precip. -- in
Pressure 30.11 in
Visibility 7.0 miles
Clouds Overcast 600 ft
Dew Point Not available.
Humidity Not available.
Rainfall in
Snow Depth Not available.
6:51 AM 5:05 PM
First Quarter, 52% visible
METAR KHZR 071335Z AUTO 13003KT 7SM OVC006 10/10 A3011 RMK AO2 T01040095
Pressure 30.11 in
Visibility 7.0 miles
Clouds Overcast 600 ft
Dew Point Not available.
Humidity Not available.
Rainfall in
Snow Depth Not available.
6:51 AM 5:05 PM
First Quarter, 52% visible
METAR KHZR 071335Z AUTO 13003KT 7SM OVC006 10/10 A3011 RMK AO2 T01040095

10-Day Weather Forecast

Almanac

Astronomy

Dec. 07, 2016 Rise Set
Actual Time
Civil Twilight
Nautical Twilight
Astronomical Twilight
Moon
Length of Visible Light
Length of Day
Tomorrow will be .
, % of the Moon is Illuminated

Today's Extremes

State Highs State Lows

Community

WunderPhotos

Upload Photos

1,956,114 photos uploaded!

WunderBlog® & News

Nearby

Air Quality

  Air Quality AQ Index Pollutant
Not available.

Snow Depth

Station Depth Elevation

Earthquake Activity

City Distance Mag. Time & Date
Minimum magnitude displayed is 2.5.

Coastal Water Temperatures

Place Temperature

Stations

Nearby Weather Stations

Station Location Temp. Windchill Dew Point Humidity Wind Precip. Elev Updated Type
                   

Watches & Warnings

Flood Warning
Issued: 7:34 PM CST Dec. 6, 2016 – National Weather Service

The Flood Warning continues for
The Bayou des cannes near Eunice.
* Until Wednesday evening... or until the warning is cancelled.
* At 6:00 PM Tuesday the stage was 16.7 feet.
* Minor flooding is occurring and minor flooding is forecast.
* Flood stage is 16.0 feet.
* Forecast... the river will continue to fall to below flood stage by
tomorrow afternoon.
* Impact... at stages near 16.0 feet... minor flooding begins along
The Bayou with a few structures right along The Bayou threatened.


Lat... Lon 3057 9240 3056 9235 3019 9256 3022 9260
      3045 9257